Aktualne dane pomiarowe

Uwaga, wersja testowa! Automatyczne pobieranie danych za pomocą narzędzi lub skryptów to umożliwiających jest zabronione.

Dane meteo z obszaru Polski uzyskane na podstawie depesz SYNOP pobieranych co godzinę z NWS. Najedź myszką na symbol przedstawiony w tabeli, aby uzyskać informacje co do jego znaczenia. Prosimy pamiętać, że to testowa wersja strony, która jeszcze nie jest ukończona. Stworzono również jest krótki FAQ dotyczący korzystania z tej podstrony Anomalie temperatury w chwili obecnej odniesione są do okresu referencyjnego 1951-2016. Okres ten będzie później zmieniony na 1981-2010. Kliknij ikonę aby pobrać plik CSV. Kliknij ikonę aby wygenerować mapę synoptyczną dla danego terminu.

Wybierz Datę:    

        

Olsztyn (12272)

Dane terminowe dla wybranej stacji. Kliknij datę, aby otrzymać dane z tego terminu dla wszystkich stacji.

TemperaturaZachmurzenieWiatrCiśnienieOpadyPogoda
 Data t td wb tx tn tg rh  Nt Nl Cl Cm Ch ws wd g1 g2 wx mslp ppp ch 24h 12h t ww ww w1 w2  
2019-07-20 23:00:00 19.3 14.1 15.9--- 7240.0wx-wx2wx--21015.9 999.8 -0.1---------
2019-07-20 22:00:00 20.4 14.3 16.4--- 6840.0wx-wx2wx--21016.01000.0 0.6---------
2019-07-20 21:00:00 20.5 13.9 16.2--- 6645.0wx-wx2wx---1015.9 999.9 0.9---------
2019-07-20 20:00:00 21.6 13.8 16.6--- 6150.0wx-wx2wx--21015.9 999.9 0.8---------
2019-07-20 19:00:00 23.6 14.0 17.5--- 5545.0wx-wx2wx--21015.3 999.4 0.3---------
2019-07-20 18:00:00 25.7 12.9 17.8 28.2 19.1- 4545.0wxwxwxwx2wx--21014.7 999.0 -0.2- 0.012------
2019-07-20 17:00:00 27.1 12.7 18.3--- 4135.0wxwxwxwx3wx--31014.8 999.1 -0.1---------
2019-07-20 16:00:00 27.7 11.7 18.0--- 3735.0wxwxwxwx2wx--21014.7 999.1 -0.2---------
2019-07-20 15:00:00 27.9 12.3 18.4--- 3835.0wxwxwx3wx---1014.8 999.2 -0.2---------
2019-07-20 14:00:00 27.3 11.7 17.9--- 3835.0wxwxwx2wx--21014.9 999.2 -0.4---------
2019-07-20 13:00:00 27.3 12.9 18.4--- 4135.0wxwxwx2wx--21015.0 999.3 -0.1---------
2019-07-20 12:00:00 27.3 10.9 17.5--- 3635.0wxwxwx2wx--21015.1 999.4 -0.1- 0.06------
2019-07-20 11:00:00 25.2 12.8 17.6--- 4635.0wxwxwx2wx--21015.4 999.6 0.5---------
2019-07-20 10:00:00 25.6 13.8 18.2--- 4830.0wxwxwx2wx--21015.2 999.4 0.4---------
2019-07-20 09:00:00 24.6 12.9 17.4--- 4830.0wx-wx1wx--11015.3 999.5 0.7---------
2019-07-20 08:00:00 22.7 13.2 16.7--- 5525.0wx-wx2wx--21015.0 999.1 0.7---------
2019-07-20 07:00:00 21.6 14.3 16.9--- 6325.0wx-wx1wx--11015.0 999.0 0.7---------
2019-07-20 06:00:00 19.1 13.7 15.6 24.0 13.3 11 7128.0wx-wx1wx--11014.9 998.8 0.8- 0.012-22----
2019-07-20 05:00:00 16.5 12.8 14.0--- 7921.0wx-wx1wx---1014.6 998.4 0.7---------
2019-07-20 04:00:00 14.1 12.0 12.6--- 8721.0wx-wx1wx--11014.7 998.3 0.5---------
2019-07-20 03:00:00 13.4 11.5 12.1--- 8820.0wx-wx0---01014.4 998.0 0.3---------
2019-07-20 02:00:00 14.3 12.0 12.7--- 8630.0wx-1wx--11014.0 997.7 0.1---------
2019-07-20 01:00:00 14.7 11.5 12.6--- 8130.0wx-1wx--11014.1 997.8 0.2---------
2019-07-20 00:00:00 16.1 12.8 13.9--- 8125.0wx-wx1wx--11013.9 997.7 0.4- 0.06------
2019-07-19 23:00:00 17.4 12.5 14.2--- 7345.0wx-wx0----1013.8 997.6 0.4---------
2019-07-19 22:00:00 19.4 12.4 15.0--- 6430.0wxwxwx1wx--11013.7 997.6 0.7---------
2019-07-19 21:00:00 20.1 13.1 15.6--- 6440.0wxwxwx2wx--21013.3 997.3 0.6---------
2019-07-19 20:00:00 19.7 12.7 15.3--- 6430.0wxwxwxwx1wx--11013.2 997.2 0.5---------
2019-07-19 19:00:00 21.2 12.3 15.7--- 5750.0wxwxwxwx0---01012.8 996.9 0.3---------
2019-07-19 18:00:00 24.0 12.3 16.8 26.6 15.8- 4850.0wxwxwxwx0---01012.5 996.7 -0.1- 0.012------
2019-07-19 17:00:00 25.8 8.7 15.9--- 3440.0wxwxwxwx1wx--11012.4 996.7 -0.3---------
2019-07-19 16:00:00 26.0 9.8 16.5--- 3630.0wxwxwxwx1wx--11012.3 996.6 -0.5---------
2019-07-19 15:00:00 25.9 8.8 16.0--- 3440.0wxwxwxwx2wx--21012.5 996.8 -0.6---------
2019-07-19 14:00:00 26.4 9.7 16.6--- 3535.0wxwxwxwx2wx--21012.7 997.0 -0.7---------
2019-07-19 13:00:00 25.8 9.2 16.2--- 3535.0wxwxwxwx1wx--11012.8 997.1 -0.8---------
2019-07-19 12:00:00 24.8 9.1 15.7--- 3730.0wxwxwxwx1wx--11013.2 997.4 -0.8- 0.06------
2019-07-19 11:00:00 24.4 10.7 16.3--- 4229.0wxwxwxwx2wx--21013.5 997.7 -0.7---------
2019-07-19 10:00:00 24.2 10.5 16.1--- 4230.0wxwxwx2wx--21013.7 997.9 -0.5---------
2019-07-19 09:00:00 22.2 11.0 15.5--- 4935.0wxwxwxwx2wx--21014.1 998.2 -0.3---------
2019-07-19 08:00:00 20.2 14.3 16.3--- 6940.0wx-wxwx2wx--21014.4 998.4 -0.1---------
2019-07-19 07:00:00 17.8 14.3 15.4--- 8040.0wxwxwx1wx--11014.6 998.4 0.0---------
2019-07-19 06:00:00 15.8 13.5 14.2 19.3 9.4 6 8635.0wxwxwx1wx--11014.8 998.5 0.1- 0.012------
2019-07-19 05:00:00 13.9 12.8 13.1--- 9330.0wx-wx1wx--11014.9 998.5 0.1---------
2019-07-19 04:00:00 10.8 9.9 10.1--- 9430.0wx-wx1wx--11015.0 998.4 0.0---------
2019-07-19 03:00:00 9.8 9.0 9.2--- 9535.0wx-wx0---01015.0 998.4 0.1---wx---
2019-07-19 02:00:00 9.6 8.7 8.9--- 9430.0wx-wx0---01015.0 998.4 0.0---wx---
2019-07-19 01:00:00 10.0 8.8 9.1--- 9250.0wx-1wx--11015.0 998.4 0.2---wx---
2019-07-19 00:00:00 10.7 9.5 9.8--- 9235.0wx-0---01014.9 998.3 0.2- 0.06wx---
5.8 ms

 

Print Friendly, PDF & Email